createdAt,value
2022-11-19T04:01:25.246Z,6.80
2022-11-19T04:04:10.734Z,6.80
2022-11-19T04:06:37.685Z,6.80
2022-11-19T04:09:04.580Z,6.80
2022-11-19T04:11:31.441Z,6.90
2022-11-19T04:13:58.293Z,6.90
2022-11-19T04:16:26.503Z,6.90
2022-11-19T04:18:53.382Z,6.90
2022-11-19T04:21:20.401Z,7.00
2022-11-19T04:23:47.410Z,7.00
2022-11-19T04:26:14.380Z,7.00
2022-11-19T04:28:41.420Z,6.90
2022-11-19T04:31:08.429Z,6.90
2022-11-19T04:33:37.876Z,6.90
2022-11-19T04:36:05.209Z,6.90
2022-11-19T04:38:32.077Z,7.00
2022-11-19T04:40:58.878Z,7.00
2022-11-19T04:43:25.710Z,7.00
2022-11-19T04:45:52.611Z,7.00
2022-11-19T04:48:19.466Z,7.00
2022-11-19T04:50:47.657Z,7.00
2022-11-19T04:53:14.533Z,7.00
2022-11-19T04:55:42.061Z,6.90
2022-11-19T04:58:09.235Z,6.90
2022-11-19T05:00:36.121Z,6.90
2022-11-19T05:03:03.043Z,6.90
2022-11-19T05:05:29.918Z,6.90
2022-11-19T05:07:58.116Z,6.90
2022-11-19T05:10:25.051Z,6.80
2022-11-19T05:12:51.983Z,6.80
2022-11-19T05:15:18.890Z,6.80
2022-11-19T05:17:45.807Z,6.70
2022-11-19T05:20:12.835Z,6.80
2022-11-19T05:22:39.690Z,6.80
2022-11-19T05:25:08.588Z,6.80
2022-11-19T05:27:35.555Z,6.80
2022-11-19T05:30:02.497Z,6.80
2022-11-19T05:32:29.349Z,6.80
2022-11-19T05:34:56.198Z,6.80
2022-11-19T05:37:23.013Z,6.80
2022-11-19T05:39:49.882Z,6.70
2022-11-19T05:42:18.105Z,6.70
2022-11-19T05:44:45.006Z,6.70
2022-11-19T05:47:11.914Z,6.80
2022-11-19T05:49:39.104Z,6.80
2022-11-19T05:52:05.941Z,6.80
2022-11-19T05:54:33.003Z,6.70
2022-11-19T05:56:59.948Z,6.80
2022-11-19T05:59:28.155Z,6.70
2022-11-19T06:01:54.991Z,6.70
2022-11-19T06:04:21.830Z,6.70
2022-11-19T06:06:48.601Z,6.70
2022-11-19T06:09:15.842Z,6.70
2022-11-19T06:11:48.444Z,6.70
2022-11-19T06:14:15.456Z,6.70
2022-11-19T06:16:43.796Z,6.70
2022-11-19T06:19:10.918Z,6.70
2022-11-19T06:21:37.685Z,6.70
2022-11-19T06:24:04.902Z,6.70
2022-11-19T06:26:31.722Z,6.70
2022-11-19T06:28:58.694Z,6.70
2022-11-19T06:31:25.570Z,6.70
2022-11-19T06:33:53.959Z,6.70
2022-11-19T06:36:21.091Z,6.70
2022-11-19T06:38:48.582Z,6.70
2022-11-19T06:41:15.673Z,6.70
2022-11-19T06:43:43.155Z,6.70
2022-11-19T06:46:10.148Z,6.70
2022-11-19T06:48:37.126Z,6.80
2022-11-19T06:51:05.826Z,6.70
2022-11-19T06:53:33.294Z,6.80
2022-11-19T06:56:01.936Z,6.80
2022-11-19T06:58:29.130Z,6.80
2022-11-19T07:00:56.639Z,6.80
2022-11-19T07:03:24.563Z,6.80
2022-11-19T07:05:57.042Z,6.80
2022-11-19T07:08:25.675Z,6.70
2022-11-19T07:10:52.558Z,6.70
2022-11-19T07:13:19.542Z,6.70
2022-11-19T07:15:46.361Z,6.60
2022-11-19T07:18:14.002Z,6.60
2022-11-19T07:20:41.374Z,6.60
2022-11-19T07:23:10.421Z,6.60
2022-11-19T07:25:38.719Z,6.60
2022-11-19T07:28:05.577Z,6.60
2022-11-19T07:30:32.410Z,6.60
2022-11-19T07:32:59.299Z,6.70
2022-11-19T07:35:26.197Z,6.70
2022-11-19T07:37:53.054Z,6.80
2022-11-19T07:40:19.890Z,6.80
2022-11-19T07:42:51.421Z,6.90
2022-11-19T07:45:20.577Z,6.90
2022-11-19T07:47:47.760Z,6.90
2022-11-19T07:50:14.797Z,7.00
2022-11-19T07:52:41.690Z,7.10
2022-11-19T07:55:09.381Z,7.20
2022-11-19T07:57:36.320Z,7.30
2022-11-19T08:00:06.177Z,7.40
2022-11-19T08:02:39.341Z,7.50
2022-11-19T08:05:06.383Z,7.60
2022-11-19T08:07:33.266Z,7.70
2022-11-19T08:10:00.237Z,7.70
2022-11-19T08:12:28.554Z,7.70
2022-11-19T08:14:56.411Z,7.70
2022-11-19T08:17:43.339Z,7.80
2022-11-19T08:20:11.015Z,7.90
2022-11-19T08:22:40.506Z,8.00
2022-11-19T08:25:07.650Z,8.00
2022-11-19T08:27:34.767Z,8.00
2022-11-19T08:30:01.680Z,8.10
2022-11-19T08:32:29.833Z,8.10
2022-11-19T08:34:56.732Z,8.10
2022-11-19T08:37:23.562Z,8.20
2022-11-19T08:39:50.454Z,8.20
2022-11-19T08:42:36.036Z,8.20
2022-11-19T08:45:03.076Z,8.20
2022-11-19T08:47:31.243Z,8.20
2022-11-19T08:49:58.240Z,8.30
2022-11-19T08:52:25.059Z,8.30
2022-11-19T08:54:52.072Z,8.30
2022-11-19T08:57:18.883Z,8.20
2022-11-19T08:59:46.108Z,8.20
2022-11-19T09:02:13.316Z,8.30
2022-11-19T09:04:41.583Z,8.20
2022-11-19T09:07:08.875Z,8.20
2022-11-19T09:09:35.793Z,8.10
2022-11-19T09:12:02.644Z,8.10
2022-11-19T09:14:29.499Z,8.20
2022-11-19T09:16:56.335Z,8.30
2022-11-19T09:19:23.236Z,8.40
2022-11-19T09:21:51.486Z,8.50
2022-11-19T09:24:18.698Z,8.70
2022-11-19T09:26:51.744Z,8.80
2022-11-19T09:29:19.897Z,8.90
2022-11-19T09:31:46.808Z,9.00
2022-11-19T09:34:13.717Z,9.20
2022-11-19T09:36:40.546Z,9.40
2022-11-19T09:39:08.735Z,9.50
2022-11-19T09:41:47.393Z,9.60
2022-11-19T09:44:42.161Z,9.60
2022-11-19T09:47:22.892Z,9.70
2022-11-19T09:49:56.815Z,9.70
2022-11-19T09:52:26.303Z,9.80
2022-11-19T09:54:57.273Z,10.00
2022-11-19T09:57:31.910Z,10.00
2022-11-19T10:00:01.754Z,10.00
2022-11-19T10:02:38.705Z,9.80
2022-11-19T10:05:06.624Z,9.70
2022-11-19T10:07:40.959Z,9.60
2022-11-19T10:10:29.399Z,9.50
2022-11-19T10:13:22.471Z,9.50
2022-11-19T10:16:00.700Z,9.50
2022-11-19T10:18:36.180Z,9.50
2022-11-19T10:21:08.897Z,9.40
2022-11-19T10:23:48.204Z,9.40
2022-11-19T10:26:18.218Z,9.30
2022-11-19T10:28:52.639Z,9.30
2022-11-19T10:31:27.519Z,9.30
2022-11-19T10:33:59.485Z,9.30
2022-11-19T10:36:32.707Z,9.30
2022-11-19T10:39:07.640Z,9.30
2022-11-19T10:41:42.795Z,9.20
2022-11-19T10:44:39.918Z,9.20
2022-11-19T10:47:13.134Z,9.20
2022-11-19T10:49:41.924Z,9.20
2022-11-19T10:52:20.241Z,9.20
2022-11-19T10:54:48.885Z,9.20
2022-11-19T10:57:19.006Z,9.20
2022-11-19T10:59:47.894Z,9.20
2022-11-19T11:02:27.759Z,9.30
2022-11-19T11:05:04.772Z,9.40
2022-11-19T11:07:55.513Z,9.50
2022-11-19T11:10:44.285Z,9.60
2022-11-19T11:13:50.848Z,10.00
2022-11-19T11:16:20.114Z,10.40
2022-11-19T11:18:48.343Z,10.70
2022-11-19T11:21:29.125Z,10.80
2022-11-19T11:23:56.749Z,10.80
2022-11-19T11:26:25.498Z,10.70
2022-11-19T11:29:02.347Z,10.50
2022-11-19T11:31:40.357Z,10.30
2022-11-19T11:34:14.774Z,10.10
2022-11-19T11:36:43.355Z,10.00
2022-11-19T11:39:25.156Z,9.90
2022-11-19T11:42:07.900Z,9.80
2022-11-19T11:44:39.143Z,9.70
2022-11-19T11:47:13.069Z,9.70
2022-11-19T11:49:41.642Z,9.80
2022-11-19T11:52:18.901Z,9.70
2022-11-19T11:54:57.483Z,9.70
2022-11-19T11:57:25.944Z,9.80
2022-11-19T11:59:54.373Z,9.70
2022-11-19T12:02:32.452Z,9.80
2022-11-19T12:05:02.165Z,9.80
2022-11-19T12:07:51.834Z,9.80
2022-11-19T12:10:25.659Z,9.70
2022-11-19T12:13:01.965Z,9.70
2022-11-19T12:15:41.246Z,9.60
2022-11-19T12:18:19.054Z,9.60
2022-11-19T12:20:52.374Z,9.60
2022-11-19T12:23:38.456Z,9.60
2022-11-19T12:26:13.829Z,9.60
2022-11-19T12:28:54.379Z,9.50
2022-11-19T12:31:36.845Z,9.50
2022-11-19T12:34:30.908Z,9.50
2022-11-19T12:37:07.525Z,9.40
2022-11-19T12:39:46.616Z,9.40
2022-11-19T12:42:35.658Z,9.40
2022-11-19T12:45:13.567Z,9.30
2022-11-19T12:48:00.700Z,9.30
2022-11-19T12:50:32.672Z,9.30
2022-11-19T12:53:41.078Z,9.30
2022-11-19T12:56:22.306Z,9.40
2022-11-19T12:58:57.964Z,9.40
2022-11-19T13:01:30.751Z,9.40
2022-11-19T13:04:04.360Z,9.40
2022-11-19T13:06:37.941Z,9.30
2022-11-19T13:09:09.252Z,9.30
2022-11-19T13:11:41.829Z,9.30
2022-11-19T13:14:18.199Z,9.30
2022-11-19T13:16:45.653Z,9.20
2022-11-19T13:19:22.670Z,9.20
2022-11-19T13:21:56.001Z,9.20
2022-11-19T13:24:29.999Z,9.20
2022-11-19T13:27:01.444Z,9.20
2022-11-19T13:29:36.362Z,9.20
2022-11-19T13:32:12.343Z,9.20
2022-11-19T13:34:47.308Z,9.20
2022-11-19T13:37:19.439Z,9.20
2022-11-19T13:39:50.604Z,9.20
2022-11-19T13:42:38.860Z,9.20
2022-11-19T13:45:06.680Z,9.20
2022-11-19T13:47:41.798Z,9.20
2022-11-19T13:50:17.285Z,9.20
2022-11-19T13:52:52.554Z,9.20
2022-11-19T13:55:32.429Z,9.20
2022-11-19T13:58:10.885Z,9.20
2022-11-19T14:00:38.594Z,9.20
2022-11-19T14:03:29.021Z,9.20
2022-11-19T14:06:11.443Z,9.20
2022-11-19T14:08:57.230Z,9.20
2022-11-19T14:11:47.330Z,9.20
2022-11-19T14:14:52.506Z,9.20
2022-11-19T14:17:45.866Z,9.30
2022-11-19T14:20:59.540Z,9.30
2022-11-19T14:24:06.182Z,9.30
2022-11-19T14:27:03.019Z,9.30
2022-11-19T14:30:00.617Z,9.40
2022-11-19T14:32:47.465Z,9.40
2022-11-19T14:35:37.096Z,9.40
2022-11-19T14:38:33.975Z,9.40
2022-11-19T14:41:18.458Z,9.40
2022-11-19T14:44:08.730Z,9.40
2022-11-19T14:46:37.844Z,9.40
2022-11-19T14:49:31.908Z,9.40
2022-11-19T14:51:59.360Z,9.40
2022-11-19T14:54:37.079Z,9.40
2022-11-19T14:57:14.133Z,9.40
2022-11-19T14:59:46.698Z,9.40
2022-11-19T15:02:24.708Z,9.40
2022-11-19T15:04:56.195Z,9.40
2022-11-19T15:07:44.768Z,9.40
2022-11-19T15:10:45.920Z,9.30
2022-11-19T15:13:24.025Z,9.30
2022-11-19T15:15:57.472Z,9.20
2022-11-19T15:18:49.584Z,9.10
2022-11-19T15:21:41.388Z,9.10
2022-11-19T15:24:19.443Z,9.10
2022-11-19T15:26:55.847Z,9.10
2022-11-19T15:29:48.671Z,9.10
2022-11-19T15:32:25.530Z,9.00
2022-11-19T15:35:14.007Z,9.00
2022-11-19T15:37:47.262Z,9.00
2022-11-19T15:40:18.300Z,9.00
2022-11-19T15:42:53.053Z,8.90
2022-11-19T15:45:23.455Z,8.90
2022-11-19T15:47:53.668Z,8.80
2022-11-19T15:50:23.621Z,8.70
2022-11-19T15:53:01.111Z,8.70
2022-11-19T15:55:30.805Z,8.60
2022-11-19T15:58:02.474Z,8.60
2022-11-19T16:00:30.923Z,8.50
2022-11-19T16:02:58.416Z,8.50
2022-11-19T16:05:28.363Z,8.50
2022-11-19T16:07:59.745Z,8.40
2022-11-19T16:10:29.455Z,8.40
2022-11-19T16:13:16.665Z,8.40
2022-11-19T16:16:11.465Z,8.40
2022-11-19T16:18:48.484Z,8.40
2022-11-19T16:21:21.115Z,8.40
2022-11-19T16:24:06.790Z,8.40
2022-11-19T16:26:36.363Z,8.40
2022-11-19T16:29:03.650Z,8.40
2022-11-19T16:31:32.238Z,8.40
2022-11-19T16:33:59.378Z,8.40
2022-11-19T16:36:29.773Z,8.40
2022-11-19T16:38:57.638Z,8.40
2022-11-19T16:41:44.316Z,8.50
2022-11-19T16:44:13.985Z,8.40
2022-11-19T16:46:42.460Z,8.40
2022-11-19T16:49:28.620Z,8.40
2022-11-19T16:51:55.707Z,8.40
2022-11-19T16:54:45.545Z,8.40
2022-11-19T16:57:15.127Z,8.40
2022-11-19T16:59:45.693Z,8.40
2022-11-19T17:02:16.854Z,8.30
2022-11-19T17:04:48.076Z,8.30
2022-11-19T17:07:20.409Z,8.30
2022-11-19T17:09:47.830Z,8.20
2022-11-19T17:12:27.158Z,8.20
2022-11-19T17:14:59.382Z,8.20
2022-11-19T17:17:40.227Z,8.10
2022-11-19T17:20:58.613Z,8.10
2022-11-19T17:23:26.788Z,8.10
2022-11-19T17:25:57.998Z,8.10
2022-11-19T17:28:35.808Z,8.10
2022-11-19T17:31:06.326Z,8.00
2022-11-19T17:33:36.829Z,8.00
2022-11-19T17:36:04.360Z,7.90
2022-11-19T17:38:33.044Z,7.90
2022-11-19T17:41:01.763Z,7.90
2022-11-19T17:43:51.071Z,7.90
2022-11-19T17:46:18.149Z,7.90
2022-11-19T17:48:49.426Z,8.00
2022-11-19T17:51:18.518Z,8.00
2022-11-19T17:53:46.218Z,7.90
2022-11-19T17:56:18.320Z,7.90
2022-11-19T17:58:45.397Z,7.90
2022-11-19T18:01:12.966Z,8.00
2022-11-19T18:03:39.909Z,8.00
2022-11-19T18:06:11.870Z,7.90
2022-11-19T18:08:40.402Z,8.00
2022-11-19T18:11:09.951Z,8.00
2022-11-19T18:13:37.014Z,8.00
2022-11-19T18:16:12.006Z,8.00
2022-11-19T18:18:38.866Z,8.00
2022-11-19T18:21:05.994Z,8.00
2022-11-19T18:23:34.189Z,8.00
2022-11-19T18:26:01.020Z,8.00
2022-11-19T18:28:27.959Z,8.00
2022-11-19T18:30:54.879Z,8.00
2022-11-19T18:33:21.669Z,8.00
2022-11-19T18:35:48.938Z,7.90
2022-11-19T18:38:15.799Z,7.90
2022-11-19T18:40:44.101Z,7.90
2022-11-19T18:43:30.508Z,7.90
2022-11-19T18:45:57.350Z,7.90
2022-11-19T18:48:24.265Z,7.90
2022-11-19T18:50:51.178Z,7.90
2022-11-19T18:53:17.949Z,7.80
2022-11-19T18:55:48.251Z,7.80
2022-11-19T18:58:15.128Z,7.80
2022-11-19T19:00:42.925Z,7.70
2022-11-19T19:03:13.079Z,7.70
2022-11-19T19:05:40.094Z,7.70
2022-11-19T19:08:07.658Z,7.70
2022-11-19T19:10:34.914Z,7.60
2022-11-19T19:13:03.198Z,7.60
2022-11-19T19:15:30.027Z,7.60
2022-11-19T19:17:56.927Z,7.50
2022-11-19T19:20:23.843Z,7.60
2022-11-19T19:22:50.687Z,7.60
2022-11-19T19:25:17.700Z,7.50
2022-11-19T19:27:44.563Z,7.50
2022-11-19T19:30:13.490Z,7.50
2022-11-19T19:32:40.540Z,7.50
2022-11-19T19:35:08.162Z,7.50
2022-11-19T19:37:34.992Z,7.50
2022-11-19T19:40:01.945Z,7.50
2022-11-19T19:42:28.823Z,7.50
2022-11-19T19:44:55.688Z,7.50
2022-11-19T19:47:23.900Z,7.50
2022-11-19T19:49:50.754Z,7.50
2022-11-19T19:52:17.602Z,7.50
2022-11-19T19:54:44.519Z,7.50
2022-11-19T19:57:11.589Z,7.40
2022-11-19T19:59:38.437Z,7.40
2022-11-19T20:02:05.338Z,7.40
2022-11-19T20:04:33.686Z,7.40
2022-11-19T20:07:00.655Z,7.40
2022-11-19T20:09:27.740Z,7.30
2022-11-19T20:11:54.797Z,7.30
2022-11-19T20:14:21.648Z,7.20
2022-11-19T20:16:48.462Z,7.20
2022-11-19T20:19:15.927Z,7.10
2022-11-19T20:21:44.162Z,7.10
2022-11-19T20:24:13.256Z,7.20
2022-11-19T20:26:42.009Z,7.20
2022-11-19T20:29:11.877Z,7.20
2022-11-19T20:31:39.686Z,7.20
2022-11-19T20:34:07.100Z,7.20
2022-11-19T20:36:35.453Z,7.30
2022-11-19T20:39:04.850Z,7.20
2022-11-19T20:41:50.174Z,7.20
2022-11-19T20:44:22.008Z,7.10
2022-11-19T20:46:51.304Z,7.10
2022-11-19T20:49:19.850Z,7.10
2022-11-19T20:51:47.296Z,7.10
2022-11-19T20:54:15.656Z,7.00
2022-11-19T20:56:42.690Z,7.00
2022-11-19T20:59:09.894Z,6.90
2022-11-19T21:01:37.304Z,6.90
2022-11-19T21:04:04.938Z,6.90
2022-11-19T21:06:32.351Z,6.90
2022-11-19T21:08:59.282Z,6.80
2022-11-19T21:11:27.485Z,6.90
2022-11-19T21:13:54.491Z,6.80
2022-11-19T21:16:23.100Z,6.80
2022-11-19T21:18:50.817Z,6.80
2022-11-19T21:21:19.443Z,6.80
2022-11-19T21:23:46.648Z,6.80
2022-11-19T21:26:16.809Z,6.80
2022-11-19T21:28:46.943Z,6.80
2022-11-19T21:31:14.779Z,6.80
2022-11-19T21:33:41.840Z,6.70
2022-11-19T21:36:09.448Z,6.70
2022-11-19T21:38:36.695Z,6.60
2022-11-19T21:41:03.911Z,6.60
2022-11-19T21:43:30.993Z,6.60
2022-11-19T21:45:59.222Z,6.60
2022-11-19T21:48:26.898Z,6.60
2022-11-19T21:50:54.437Z,6.60
2022-11-19T21:53:21.344Z,6.60
2022-11-19T21:55:49.159Z,6.60
2022-11-19T21:58:16.321Z,6.60
2022-11-19T22:00:45.165Z,6.50
2022-11-19T22:03:13.915Z,6.50
2022-11-19T22:05:40.991Z,6.50
2022-11-19T22:08:08.052Z,6.50
2022-11-19T22:10:34.886Z,6.50
2022-11-19T22:13:01.752Z,6.50
2022-11-19T22:15:28.663Z,6.50
2022-11-19T22:17:55.580Z,6.50
2022-11-19T22:20:25.149Z,6.50
2022-11-19T22:22:52.058Z,6.50
2022-11-19T22:25:18.955Z,6.50
2022-11-19T22:27:45.774Z,6.50
2022-11-19T22:30:13.257Z,6.50
2022-11-19T22:32:40.407Z,6.50
2022-11-19T22:35:08.297Z,6.50
2022-11-19T22:37:36.518Z,6.50
2022-11-19T22:40:03.666Z,6.50
2022-11-19T22:42:30.466Z,6.50
2022-11-19T22:44:57.305Z,6.50
2022-11-19T22:47:24.144Z,6.50
2022-11-19T22:49:51.017Z,6.60
2022-11-19T22:52:17.872Z,6.60
2022-11-19T22:54:46.088Z,6.50
2022-11-19T22:57:12.945Z,6.50
2022-11-19T22:59:39.858Z,6.40
2022-11-19T23:02:06.721Z,6.40
2022-11-19T23:04:33.832Z,6.40
2022-11-19T23:07:00.745Z,6.40
2022-11-19T23:09:27.761Z,6.40
2022-11-19T23:12:14.531Z,6.30
2022-11-19T23:14:42.191Z,6.30
2022-11-19T23:17:09.048Z,6.30
2022-11-19T23:19:37.526Z,6.30
2022-11-19T23:22:04.952Z,6.40
2022-11-19T23:24:32.150Z,6.30
2022-11-19T23:27:00.355Z,6.30
2022-11-19T23:29:27.309Z,6.30
2022-11-19T23:31:54.160Z,6.30
2022-11-19T23:34:21.002Z,6.30
2022-11-19T23:36:47.894Z,6.20
2022-11-19T23:39:16.884Z,6.20
2022-11-19T23:41:44.379Z,6.10
2022-11-19T23:44:12.660Z,6.10
2022-11-19T23:46:40.012Z,6.10
2022-11-19T23:49:06.946Z,6.10
2022-11-19T23:51:35.325Z,6.10
2022-11-19T23:54:02.979Z,6.10
2022-11-19T23:56:31.952Z,6.10
2022-11-19T23:59:00.733Z,6.10
